Video statistics

Date Title Duration Views Likes Dislikes Comments Transcribed Length
2014-01-03 The Golden Gate Bridge Didn't Collapse!! 04:00 579,050 21,366 329 2,309 5,109
2014-01-07 Warm Things for Cold Times 02:35 481,725 17,934 67 1,656 3,650
2014-01-10 Global Warming and the Polar Vortex 04:00 500,622 18,595 257 2,666 4,715
2014-01-14 Giving Away Over $700,000 02:56 372,816 15,460 100 1,142 4,129
2014-01-17 54 JOKES! In Four Minutes! 04:00 1,714,178 38,627 697 3,049 5,830
2014-01-21 Are Poor Countries Doomed? 03:51 557,066 22,474 183 1,944 5,540
2014-01-24 The Naughty Professor: Hank and John at the Beach - REUNION! 03:56 751,713 29,122 60 2,335 6,221
2014-01-28 Question Tuesday! TFIOS Movie Trailer, Penguin Knees, and Backflips 03:56 865,063 30,890 108 2,767 5,957
2014-01-31 In Depth Viewing of the TFiOS Trailer 04:01 894,736 31,689 349 3,220 4,001
2014-02-04 Should We Raise the Minimum Wage? 03:47 1,223,161 26,690 1,379 7,505 5,029
2014-02-07 Kill All The Humans 03:28 599,139 19,902 351 2,349 4,337
2014-02-11 A Middle Aged Man 03:38 752,430 25,828 109 1,706 5,161
2014-02-14 Happy Third Chocolate Day! 03:48 428,937 16,412 107 1,308 4,803
2014-02-18 18 Great Books You Probably Haven't Read 03:25 2,100,689 60,524 608 16,172 5,502
2014-02-21 Ranting about Books 03:56 925,912 43,572 152 3,339 4,569
2014-02-25 John and Chris Meet in the Middle 03:57 376,248 14,352 75 878 5,465
2014-02-28 The Cost of Fun 03:15 552,508 18,094 179 2,012 4,206
2014-03-04 Understanding Ukraine: The Problems Today and Some Historical Context 06:59 4,034,906 65,448 8,404 16,213 8,542
2014-03-07 Thoughts from a Cruise 03:31 542,126 16,214 139 1,344 3,707
2014-03-11 Question Tuesday: TFIOS Movie, Existential Crises, and Symbolism 03:41 599,889 23,022 87 4,137 5,378
2014-03-14 Sexual Abuse, Consent, and Culture 03:58 881,272 32,347 327 3,700 4,830
2014-03-18 Is the American Dream Real? 03:33 673,783 22,031 417 2,392 4,799
2014-03-21 The Great Goose Migration 03:59 331,755 17,592 91 1,887 3,087
2014-03-25 I Gotta Go: Signing Off and Thinking about Inspiration 03:54 477,858 22,037 54 1,736 5,703
2014-03-28 New Album, New Channels, New Fabric, New Internet Thing! 03:59 319,105 9,894 96 801 5,116
2014-04-01 VELOCIRAPTORS 03:25 674,003 25,129 112 1,827 4,567
2014-04-04 Mass Incarceration in the US 03:41 2,130,630 70,229 980 6,301 3,897
2014-04-08 I Don't Even Know 02:53 673,929 22,772 105 2,367 4,090
2014-04-11 What Boys Look For in Girls 03:55 1,601,259 80,671 584 5,103 4,242
2014-04-15 Walking the Red Carpet: Thoughts from Los Angeles 03:07 809,043 32,192 72 1,950 4,284
2014-04-18 What is The Oldest Song? 04:00 632,196 21,756 393 1,632 3,591
2014-04-22 Understanding the Central African Republic 05:21 582,300 18,256 164 1,482 7,329
2014-04-25 I Love Science (Clean Version) (Uncensored link in the Description) 03:44 597,757 12,900 397 1,279 3,608
2014-04-29 Influence, Airports, and the Nerdfighter Book Club 03:39 413,757 18,432 55 1,370 5,275
2014-05-02 Hank vs. Hank: The Net Neutrality Debate in 3 Minutes 03:43 886,667 32,894 1,003 3,455 4,489
2014-05-06 TFIOS Movie Madness, Incongruent, and Headless Hotel People 03:21 400,194 19,021 56 1,292 4,469
2014-05-09 Oh JK Rowling - Kinetic Typography 03:59 679,514 22,493 688 1,359 4,298
2014-05-12 Perfect Puff and Endless Interviews: Touring and Hollywood Press Junkets 04:00 302,180 17,986 44 1,470 5,376
2014-05-16 The Myth of Greatness 03:57 494,655 20,181 121 1,091 4,612
2014-05-20 Deserving 03:39 754,045 32,018 373 2,017 5,125
2014-05-23 My Freakish Talent 03:51 598,815 32,235 183 2,186 4,721
2014-05-27 ALL THE SHIRTS (and some paths to community) 04:00 398,814 15,505 76 1,752 5,820
2014-05-30 Nerdfighteria Census 2014 Results! 03:59 397,607 13,245 54 1,518 5,429
2014-06-03 The Fault in Our Stars Movie Premiere 03:21 903,156 40,705 106 3,894 4,933
2014-06-06 Thoughts from the TFiOS Premiere! 03:59 606,443 26,667 104 2,301 4,730
2014-06-10 Our Old Friend Complexity: Behind the Beautiful Forevers 03:45 398,471 12,072 67 1,543 5,456
2014-06-13 How to Make Cinnamon Toast (two ways) 03:33 827,244 28,474 370 7,700 3,984
2014-06-17 Old. 02:46 606,376 27,551 132 3,085 3,435
2014-06-20 Pre-History of Online Video 03:55 395,612 12,865 129 2,163 4,274
2014-06-24 In Pursuit of Quiet 02:52 494,579 23,443 124 2,243 2,721
2014-06-27 My Day Before VidCon 03:45 438,764 18,429 79 1,090 4,911
2014-07-01 Why I Love Makeup 02:43 886,309 33,341 272 2,790 3,768
2014-07-04 13 Things to Know about Concerts 03:59 590,379 27,878 107 1,498 5,072
2014-07-08 The Future of Nerdfighteria 03:35 436,574 19,798 75 3,452 5,221
2014-07-11 Touring with a Rock Band in 1,8X&,00B Simple Steps 03:41 213,098 8,392 45 573 3,722
2014-07-15 Exciting Announcements and Mosquito-Borne Illnesses 03:01 401,604 15,220 57 2,960 4,120
2014-07-18 EVERY VLOGBROTHERS PUNISHMENT! 04:01 566,211 17,143 51 3,552 5,752
2014-07-22 Ambiguous Victories and Real Progress: Behind the Beautiful Forevers 03:44 316,351 9,462 47 629 5,294
2014-07-25 Towering Mountains of Ignorance 03:52 515,834 28,014 213 2,879 5,089
2014-07-29 Listen: Thoughts from Addis Ababa, Ethiopia 03:21 469,604 24,186 119 1,567 4,582
2014-08-01 PUNISHMENT OF PAIN AND SCIENCE! 03:56 559,649 18,293 70 1,697 5,287
2014-08-03 Happy Esther Day! 01:33 377,881 18,555 59 904 1,684
2014-08-08 Who Owns a Monkey's Selfie? And a Song About Meningitis! 03:59 401,196 13,966 102 1,397 4,203
2014-08-12 EBOLA! (...meningitis) 03:57 550,702 23,110 79 1,564 4,948
2014-08-15 The Bizarre State of Copyright 03:57 525,359 15,197 121 934 5,559
2014-08-19 Baby Names: Thoughts from Rural Ethiopia 04:00 410,048 18,810 60 974 5,373
2014-08-22 Kidneys, LlamaJohn, Frankenstein, Back to School, and The Nerdfighter Online Video Workshop! 03:59 347,637 13,008 44 900 5,004
2014-08-26 Food Is Weird: Understanding Agriculture in the Developing World 07:18 506,846 18,230 97 1,738 9,270
2014-08-29 What's the Difference Between A and Z 03:56 467,149 19,608 69 1,600 7,624
2014-09-02 MORTIFICATION 03:37 432,070 20,614 52 1,397 4,952
2014-09-05 REUNION TUESDAY! FRIDAY! WHATEVER! 03:58 592,835 21,799 53 933 6,345
2014-09-09 Bill Gates and John Green Discuss Global Health 02:27 298,444 11,582 49 654 2,638
2014-09-09 Going to College (in Ethiopia) 04:01 323,207 12,986 73 973 5,376
2014-09-12 Jetpacks and Certain Death: JOIN THE HANGOUT 01:36 32,959 1,647 13 103 1,909
2014-09-12 Hanging with High School Hank 03:57 678,292 19,421 72 1,710 4,651
2014-09-16 It's Question Tuesday! Cheesy Jokes, Paper Towns Movie, and Dinosaur Butt Brains 03:53 632,442 23,257 74 1,638 5,974
2014-09-19 The Oculus Rift is Freakin Me Out 03:59 364,895 10,997 100 976 4,953
2014-09-23 Looking Away 03:17 337,413 16,648 44 763 4,276
2014-09-26 Gettin' Real with Hank 03:56 487,690 22,225 90 1,757 4,543
2014-09-30 Keeping it EVEN REALER 04:00 495,301 19,983 47 2,854 5,240
2014-10-03 Hong Kong Protests Explained 06:38 730,449 22,762 358 2,391 9,052
2014-10-07 I Kind of Hate Batman 03:28 953,668 32,447 5,074 5,312 4,723
2014-10-10 I Kinda AM Batman 03:55 638,471 23,615 636 1,877 4,770
2014-10-14 A Minor Crisis 03:56 557,587 17,643 77 1,788 5,460
2014-10-17 MY FACE ON A BUS 04:00 397,400 20,819 123 1,944 4,621
2014-10-21 Ebola: What IS Terrifying 03:34 584,515 21,297 124 1,445 4,485
2014-10-24 #Octothorpe - A Symbolistic Journey 03:42 319,353 13,727 50 1,401 4,837
2014-10-28 The Paper Towns Movie IS HERE! 03:43 914,074 33,406 127 2,334 5,314
2014-10-31 Ten Terrible Reason to not Vote (and two good ones) 03:31 622,150 23,918 716 3,884 4,461
2014-11-04 Mustaches and Movies: Day One of Paper Towns 03:07 456,527 21,663 62 1,489 4,045
2014-11-07 New Crash Course and Pizzamas! 04:00 299,582 15,807 31 2,284 4,983
2014-11-10 The Woman Without a Face - Pizzamas Day 1 03:47 316,250 12,442 27 830 4,691
2014-11-11 Lacey and Angela Question Tuesday: Pizzamas Day 2 04:00 462,110 17,328 90 817 6,262
2014-11-12 The History of Pizza John! 03:53 581,436 20,934 91 1,056 4,862
2014-11-13 The History of Pizza and the History of John: Pizzamas Day 4 03:13 338,977 12,486 27 1,015 4,079
2014-11-14 A Surprise Relationship Between John and Hank! 03:50 470,738 26,597 79 2,605 4,686
2014-11-17 Combines and Movie Magic: Pizzamas Day 6 02:53 349,445 11,564 31 513 4,158
2014-11-18 How to Never Feel Embarrassed Again 04:00 589,962 22,018 119 6,014 4,716
2014-11-19 The Future of the Project for Awesome: Pizzamas Day 8 04:00 269,296 10,871 59 1,023 5,262
2014-11-20 Announcing VidCon 2015! 04:00 286,999 13,677 65 1,097 4,947
2014-11-21 The Sleepiest Sleepyhead in Sleeptown 03:15 336,637 12,238 50 444 4,033
2014-11-25 Tyler, Ingrid, Troye, Hannah, Mandy, Jenn, and Rosianna Visit Paper Towns 03:53 545,831 24,899 123 1,244 6,062
2014-11-28 Global Health and Human Hair: What the Vlogbrothers are Thankful For 03:54 323,687 11,811 42 1,272 5,488
2014-12-02 What You Eat Of Those You Love 03:01 344,369 13,836 57 775 3,757
2014-12-06 A Brief History of Homestar Runner 04:00 476,315 11,409 441 1,224 6,578
2014-12-08 I'm Home! Time to Get Ready for the 2014 Project for Awesome 02:47 288,606 9,486 38 534 4,003
2014-12-09 Question Tuesday with Cara Delevingne of Paper Towns 03:47 2,907,846 81,484 433 3,614 5,467
2014-12-12 NONSENSE: P4A 2014 - Partners in Health 03:49 141,409 6,502 32 337 5,243
2014-12-16 Jelly Face, Sharpie Face, Peanut Butter Face, and Mummy Dancers: The 2014 Project for Awesome 02:36 216,512 7,799 23 575 3,468
2014-12-19 BUTFARTMAN Is Coming To Town! 04:00 177,816 8,823 48 490 4,545
2014-12-23 Agloe, New York 03:08 287,884 15,988 37 820 4,248
2014-12-26 The Best and Worst of 2014 03:10 398,702 16,192 456 1,352 4,126
2014-12-30 Racism in the United States: By the Numbers 03:56 1,283,017 40,690 2,394 6,906 5,314